createdAt,value
2023-08-12T00:00:37.087Z,14.20
2023-08-12T00:05:38.540Z,16.23
2023-08-12T00:10:39.988Z,21.83
2023-08-12T00:15:41.493Z,14.95
2023-08-12T00:20:43.047Z,15.30
2023-08-12T00:25:44.473Z,16.10
2023-08-12T00:30:49.126Z,21.35
2023-08-12T00:35:50.585Z,13.77
2023-08-12T00:40:52.033Z,17.67
2023-08-12T00:45:53.626Z,22.92
2023-08-12T00:50:55.126Z,13.73
2023-08-12T00:55:56.582Z,12.70
2023-08-12T01:00:58.107Z,17.85
2023-08-12T01:06:00.359Z,16.73
2023-08-12T01:11:17.191Z,22.88
2023-08-12T01:16:19.825Z,18.10
2023-08-12T01:21:22.281Z,12.45
2023-08-12T01:26:23.755Z,13.13
2023-08-12T01:31:35.020Z,13.52
2023-08-12T01:36:38.842Z,15.95
2023-08-12T01:41:40.769Z,18.50
2023-08-12T01:46:44.630Z,13.35
2023-08-12T01:51:46.130Z,17.88
2023-08-12T01:56:47.602Z,19.60
2023-08-12T02:01:49.090Z,20.20
2023-08-12T02:06:50.592Z,20.02
2023-08-12T02:11:52.004Z,14.90
2023-08-12T02:16:53.456Z,18.38
2023-08-12T02:21:54.913Z,19.10
2023-08-12T02:26:56.447Z,20.52
2023-08-12T02:31:57.913Z,28.27
2023-08-12T02:36:59.368Z,20.38
2023-08-12T02:42:00.873Z,15.63
2023-08-12T02:47:02.320Z,14.82
2023-08-12T02:52:03.885Z,15.52
2023-08-12T02:57:05.361Z,12.90
2023-08-12T03:02:06.820Z,15.35
2023-08-12T03:07:08.282Z,14.48
2023-08-12T03:12:09.776Z,12.13
2023-08-12T03:17:11.349Z,17.65
2023-08-12T03:22:13.200Z,14.77
2023-08-12T03:27:14.623Z,13.85
2023-08-12T03:32:16.031Z,15.30
2023-08-12T03:37:17.485Z,11.15
2023-08-12T03:42:18.994Z,14.23
2023-08-12T03:47:20.381Z,12.60
2023-08-12T03:52:21.776Z,14.90
2023-08-12T03:57:23.210Z,12.15
2023-08-12T04:02:24.661Z,11.48
2023-08-12T04:07:26.177Z,16.85
2023-08-12T04:12:27.570Z,13.60
2023-08-12T04:17:29.022Z,12.85
2023-08-12T04:22:30.425Z,11.63
2023-08-12T04:27:31.885Z,14.20
2023-08-12T04:32:33.326Z,12.57
2023-08-12T04:37:34.851Z,13.00
2023-08-12T04:42:36.359Z,12.65
2023-08-12T04:47:37.877Z,17.02
2023-08-12T04:52:39.306Z,17.52
2023-08-12T04:57:40.750Z,18.95
2023-08-12T05:02:42.212Z,16.73
2023-08-12T05:07:43.632Z,16.83
2023-08-12T05:12:45.400Z,15.43
2023-08-12T05:17:46.847Z,17.30
2023-08-12T05:22:48.311Z,18.98
2023-08-12T05:27:50.697Z,14.50
2023-08-12T05:32:52.226Z,17.83
2023-08-12T05:37:53.780Z,17.80
2023-08-12T05:42:55.414Z,14.68
2023-08-12T05:47:57.214Z,16.27
2023-08-12T05:52:58.748Z,17.45
2023-08-12T05:58:00.215Z,20.55
2023-08-12T06:03:01.672Z,20.75
2023-08-12T06:08:03.216Z,17.05
2023-08-12T06:13:04.776Z,16.42
2023-08-12T06:18:06.574Z,19.58
2023-08-12T06:23:08.152Z,20.88
2023-08-12T06:28:09.977Z,18.80
2023-08-12T06:33:11.427Z,17.98
2023-08-12T06:38:12.914Z,20.80
2023-08-12T06:43:14.781Z,23.10
2023-08-12T06:48:16.296Z,20.30
2023-08-12T06:53:17.768Z,19.48
2023-08-12T06:58:19.181Z,19.83
2023-08-12T07:03:21.307Z,20.45
2023-08-12T07:08:22.909Z,24.88
2023-08-12T07:13:24.394Z,25.00
2023-08-12T07:18:25.869Z,22.52
2023-08-12T07:23:27.275Z,23.05
2023-08-12T07:28:28.713Z,25.98
2023-08-12T07:33:30.122Z,23.85
2023-08-12T07:38:31.708Z,22.45
2023-08-12T07:43:33.520Z,20.50
2023-08-12T07:48:34.977Z,27.30
2023-08-12T07:53:36.421Z,15.95
2023-08-12T07:58:37.879Z,24.20
2023-08-12T08:03:39.284Z,22.95
2023-08-12T08:08:40.721Z,24.25
2023-08-12T08:13:42.384Z,20.10
2023-08-12T08:18:43.837Z,20.00
2023-08-12T08:23:45.261Z,20.48
2023-08-12T08:28:46.699Z,18.48
2023-08-12T08:33:48.155Z,20.40
2023-08-12T08:38:49.996Z,17.42
2023-08-12T08:43:56.297Z,17.10
2023-08-12T08:49:00.362Z,13.88
2023-08-12T08:54:04.245Z,14.27
2023-08-12T08:59:05.902Z,11.50
2023-08-12T09:04:08.648Z,15.35
2023-08-12T09:09:13.666Z,13.32
2023-08-12T09:14:15.151Z,18.42
2023-08-12T09:19:16.600Z,18.85
2023-08-12T09:24:18.016Z,18.05
2023-08-12T09:29:23.169Z,20.65
2023-08-12T09:34:25.139Z,19.92
2023-08-12T09:39:26.976Z,19.13
2023-08-12T09:44:29.300Z,23.45
2023-08-12T09:49:30.878Z,21.15
2023-08-12T09:54:32.765Z,21.30
2023-08-12T09:59:36.326Z,23.30
2023-08-12T10:04:45.445Z,21.60
2023-08-12T10:14:48.996Z,23.52
2023-08-12T10:19:56.430Z,24.33
2023-08-12T10:24:59.883Z,29.05
2023-08-12T10:30:05.007Z,24.35
2023-08-12T10:35:07.204Z,25.67
2023-08-12T10:40:21.950Z,25.13
2023-08-12T10:45:23.653Z,25.10
2023-08-12T10:50:26.804Z,22.30
2023-08-12T10:55:28.666Z,17.95
2023-08-12T11:00:30.308Z,16.90
2023-08-12T11:05:38.804Z,17.08
2023-08-12T11:10:40.696Z,16.90
2023-08-12T11:15:44.297Z,18.08
2023-08-12T11:20:47.896Z,16.95
2023-08-12T11:25:49.349Z,17.17
2023-08-12T11:30:50.860Z,16.42
2023-08-12T11:35:52.366Z,19.38
2023-08-12T11:40:53.835Z,18.73
2023-08-12T11:45:56.454Z,16.23
2023-08-12T11:50:58.236Z,18.95
2023-08-12T11:55:59.727Z,15.82
2023-08-12T12:01:01.182Z,15.02
2023-08-12T12:06:02.599Z,16.40
2023-08-12T12:11:07.330Z,15.20
2023-08-12T12:16:11.717Z,15.52
2023-08-12T12:21:21.629Z,11.95
2023-08-12T12:26:23.636Z,12.48
2023-08-12T12:31:25.025Z,11.15
2023-08-12T12:36:26.557Z,9.73
2023-08-12T12:41:28.004Z,9.10
2023-08-12T12:46:30.485Z,9.82
2023-08-12T12:51:32.052Z,8.43
2023-08-12T12:56:33.472Z,8.30
2023-08-12T13:01:34.943Z,8.82
2023-08-12T13:06:36.456Z,7.78
2023-08-12T13:11:37.946Z,8.85
2023-08-12T13:16:39.415Z,8.68
2023-08-12T13:21:40.869Z,6.47
2023-08-12T13:26:42.281Z,5.53
2023-08-12T13:31:43.892Z,1.15
2023-08-12T13:36:45.333Z,1.85
2023-08-12T13:41:46.719Z,0.70
2023-08-12T13:46:48.236Z,0.68
2023-08-12T13:51:49.712Z,1.98
2023-08-12T13:56:51.196Z,3.25
2023-08-12T14:01:52.864Z,0.55
2023-08-12T14:06:54.260Z,1.02
2023-08-12T14:11:55.742Z,1.85
2023-08-12T14:16:57.480Z,1.05
2023-08-12T14:21:58.937Z,1.00
2023-08-12T14:27:00.382Z,1.67
2023-08-12T14:32:01.914Z,2.03
2023-08-12T14:37:04.138Z,1.83
2023-08-12T14:42:06.373Z,0.90
2023-08-12T14:47:08.119Z,1.35
2023-08-12T14:52:16.965Z,1.90
2023-08-12T14:57:19.139Z,1.13
2023-08-12T15:02:23.649Z,0.52
2023-08-12T15:07:25.268Z,0.85
2023-08-12T15:12:26.787Z,1.73
2023-08-12T15:17:28.498Z,0.93
2023-08-12T15:22:29.984Z,1.67
2023-08-12T15:27:31.389Z,2.15
2023-08-12T15:32:32.859Z,1.30
2023-08-12T15:37:34.267Z,2.10
2023-08-12T15:42:36.071Z,1.90
2023-08-12T15:47:37.621Z,4.55
2023-08-12T15:52:39.030Z,3.95
2023-08-12T15:57:40.467Z,1.65
2023-08-12T16:02:41.980Z,1.55
2023-08-12T16:07:43.516Z,2.80
2023-08-12T16:12:44.988Z,2.83
2023-08-12T16:17:46.438Z,9.63
2023-08-12T16:22:47.869Z,4.05
2023-08-12T16:27:49.338Z,7.60
2023-08-12T16:32:50.817Z,54.40
2023-08-12T16:37:52.278Z,8.10
2023-08-12T16:42:54.173Z,11.45
2023-08-12T16:47:56.005Z,9.18
2023-08-12T16:52:57.513Z,7.70
2023-08-12T16:57:58.913Z,7.47
2023-08-12T17:03:00.417Z,4.70
2023-08-12T17:08:01.855Z,8.93
2023-08-12T17:13:03.401Z,11.88
2023-08-12T17:18:05.160Z,3.70
2023-08-12T17:23:06.716Z,8.65
2023-08-12T17:28:08.158Z,8.48
2023-08-12T17:33:09.646Z,8.52
2023-08-12T17:38:11.203Z,7.25
2023-08-12T17:43:12.672Z,4.20
2023-08-12T17:48:14.299Z,4.47
2023-08-12T17:53:15.723Z,7.22
2023-08-12T17:58:17.144Z,7.10
2023-08-12T18:03:18.668Z,4.18
2023-08-12T18:08:20.419Z,5.95
2023-08-12T18:13:21.931Z,5.60
2023-08-12T18:18:23.395Z,2.78
2023-08-12T18:23:24.867Z,9.98
2023-08-12T18:28:26.272Z,4.07
2023-08-12T18:33:27.667Z,9.10
2023-08-12T18:38:29.149Z,6.47
2023-08-12T18:43:30.579Z,8.10
2023-08-12T18:48:32.076Z,6.60
2023-08-12T18:53:33.560Z,12.25
2023-08-12T18:58:35.013Z,7.55
2023-08-12T19:03:36.549Z,8.88
2023-08-12T19:08:38.242Z,6.80
2023-08-12T19:13:39.684Z,8.25
2023-08-12T19:18:41.127Z,6.82
2023-08-12T19:23:42.596Z,8.73
2023-08-12T19:28:44.037Z,8.65
2023-08-12T19:33:45.620Z,10.70
2023-08-12T19:38:47.065Z,6.55
2023-08-12T19:43:48.533Z,5.78
2023-08-12T19:48:50.553Z,12.10
2023-08-12T19:53:52.041Z,8.25
2023-08-12T19:58:53.425Z,9.45
2023-08-12T20:03:54.912Z,10.18
2023-08-12T20:08:56.366Z,6.40
2023-08-12T20:13:57.774Z,12.52
2023-08-12T20:18:59.180Z,7.90
2023-08-12T20:24:00.596Z,10.55
2023-08-12T20:29:01.991Z,11.85
2023-08-12T20:34:03.650Z,11.32
2023-08-12T20:39:05.109Z,6.53
2023-08-12T20:44:06.523Z,8.70
2023-08-12T20:49:11.053Z,9.82
2023-08-12T20:54:13.723Z,6.82
2023-08-12T20:59:15.163Z,8.82
2023-08-12T21:04:16.592Z,5.50
2023-08-12T21:09:18.013Z,9.40
2023-08-12T21:14:20.610Z,8.63
2023-08-12T21:19:22.043Z,9.70
2023-08-12T21:24:23.502Z,11.35
2023-08-12T21:29:24.907Z,14.52
2023-08-12T21:34:26.307Z,13.13
2023-08-12T21:39:30.007Z,7.60
2023-08-12T21:44:31.438Z,10.43
2023-08-12T21:49:32.965Z,7.78
2023-08-12T21:54:34.369Z,8.45
2023-08-12T21:59:35.807Z,7.68
2023-08-12T22:04:37.266Z,10.93
2023-08-12T22:09:38.728Z,9.00
2023-08-12T22:14:40.217Z,12.20
2023-08-12T22:19:41.672Z,12.18
2023-08-12T22:24:43.087Z,11.00
2023-08-12T22:29:44.496Z,13.18
2023-08-12T22:34:45.910Z,6.20
2023-08-12T22:39:47.392Z,14.43
2023-08-12T22:44:48.787Z,9.57
2023-08-12T22:49:50.269Z,13.30
2023-08-12T22:54:51.724Z,8.68
2023-08-12T22:59:53.128Z,12.05
2023-08-12T23:04:54.544Z,8.90
2023-08-12T23:09:55.934Z,8.30
2023-08-12T23:14:57.505Z,11.00
2023-08-12T23:19:58.991Z,8.43
2023-08-12T23:25:00.451Z,12.80
2023-08-12T23:30:02.788Z,7.75
2023-08-12T23:35:04.550Z,10.85
2023-08-12T23:40:06.722Z,15.32
2023-08-12T23:45:08.740Z,13.00
2023-08-12T23:50:10.619Z,11.82
2023-08-12T23:55:12.118Z,8.02
